createdAt,value
2018-07-17T00:00:01.764Z,5.07
2018-07-17T00:02:30.375Z,4.78
2018-07-17T00:04:59.300Z,17.03
2018-07-17T00:07:27.398Z,5.57
2018-07-17T00:09:55.486Z,5.27
2018-07-17T00:12:23.606Z,5.27
2018-07-17T00:14:51.802Z,4.70
2018-07-17T00:17:20.809Z,4.43
2018-07-17T00:19:50.095Z,4.63
2018-07-17T00:22:19.152Z,4.47
2018-07-17T00:24:47.472Z,5.13
2018-07-17T00:27:15.652Z,4.47
2018-07-17T00:29:43.852Z,4.63
2018-07-17T00:32:12.129Z,4.97
2018-07-17T00:34:40.221Z,4.50
2018-07-17T00:37:08.301Z,5.13
2018-07-17T00:39:36.400Z,4.95
2018-07-17T00:42:04.570Z,4.50
2018-07-17T00:44:32.687Z,5.27
2018-07-17T00:47:01.173Z,5.00
2018-07-17T00:49:29.265Z,5.07
2018-07-17T00:51:57.388Z,4.87
2018-07-17T00:54:25.557Z,4.90
2018-07-17T00:56:53.694Z,5.80
2018-07-17T00:59:22.170Z,5.20
2018-07-17T01:01:55.590Z,5.07
2018-07-17T01:04:30.042Z,5.07
2018-07-17T01:07:03.664Z,5.17
2018-07-17T01:09:37.000Z,5.17
2018-07-17T01:12:10.511Z,5.30
2018-07-17T01:15:09.083Z,5.47
2018-07-17T01:17:37.323Z,5.22
2018-07-17T01:20:06.860Z,5.17
2018-07-17T01:22:35.008Z,5.30
2018-07-17T01:25:03.100Z,5.27
2018-07-17T01:27:31.331Z,5.60
2018-07-17T01:29:59.399Z,5.30
2018-07-17T01:32:27.778Z,6.13
2018-07-17T01:34:55.952Z,4.87
2018-07-17T01:37:24.205Z,5.27
2018-07-17T01:39:53.304Z,5.80
2018-07-17T01:42:21.479Z,5.17
2018-07-17T01:44:50.597Z,5.43
2018-07-17T01:47:18.712Z,4.87
2018-07-17T01:49:46.813Z,5.77
2018-07-17T01:52:15.764Z,5.43
2018-07-17T01:54:43.896Z,5.80
2018-07-17T01:57:11.966Z,5.67
2018-07-17T01:59:40.237Z,6.03
2018-07-17T02:02:08.502Z,5.60
2018-07-17T02:04:36.626Z,5.33
2018-07-17T02:07:05.162Z,5.90
2018-07-17T02:09:33.242Z,5.40
2018-07-17T02:12:02.190Z,5.90
2018-07-17T02:14:31.236Z,5.15
2018-07-17T02:17:00.051Z,5.80
2018-07-17T02:19:28.213Z,5.60
2018-07-17T02:21:57.306Z,6.90
2018-07-17T02:24:25.568Z,6.53
2018-07-17T02:26:53.753Z,5.87
2018-07-17T02:29:21.934Z,6.60
2018-07-17T02:31:50.081Z,6.77
2018-07-17T02:34:18.456Z,5.90
2018-07-17T02:36:46.587Z,5.20
2018-07-17T02:39:14.964Z,6.35
2018-07-17T02:41:43.043Z,5.97
2018-07-17T02:44:11.332Z,5.57
2018-07-17T02:46:39.536Z,5.53
2018-07-17T02:49:07.662Z,4.95
2018-07-17T02:51:35.731Z,5.93
2018-07-17T02:54:03.844Z,5.03
2018-07-17T02:56:32.519Z,5.60
2018-07-17T02:59:01.439Z,5.22
2018-07-17T03:01:29.483Z,5.90
2018-07-17T03:03:57.570Z,6.00
2018-07-17T03:06:25.871Z,5.37
2018-07-17T03:08:53.984Z,5.37
2018-07-17T03:11:22.090Z,6.50
2018-07-17T03:13:50.226Z,6.23
2018-07-17T03:16:18.514Z,7.30
2018-07-17T03:18:46.695Z,6.30
2018-07-17T03:21:14.778Z,6.80
2018-07-17T03:23:42.987Z,7.87
2018-07-17T03:26:11.171Z,7.70
2018-07-17T03:28:39.261Z,7.67
2018-07-17T03:31:07.537Z,6.60
2018-07-17T03:33:35.648Z,7.80
2018-07-17T03:36:03.950Z,7.50
2018-07-17T03:38:32.065Z,6.97
2018-07-17T03:41:00.190Z,7.23
2018-07-17T03:43:28.379Z,8.23
2018-07-17T03:45:56.652Z,9.23
2018-07-17T03:48:24.724Z,7.87
2018-07-17T03:50:52.811Z,7.73
2018-07-17T03:53:20.959Z,8.27
2018-07-17T03:55:49.073Z,7.65
2018-07-17T03:58:17.450Z,7.77
2018-07-17T04:00:45.599Z,7.33
2018-07-17T04:03:13.677Z,7.30
2018-07-17T04:05:41.856Z,7.97
2018-07-17T04:08:10.022Z,7.10
2018-07-17T04:10:38.135Z,7.07
2018-07-17T04:13:06.470Z,8.20
2018-07-17T04:15:34.749Z,7.73
2018-07-17T04:18:02.958Z,8.37
2018-07-17T04:20:31.442Z,8.35
2018-07-17T04:22:59.571Z,9.23
2018-07-17T04:25:27.741Z,9.20
2018-07-17T04:27:55.864Z,8.50
2018-07-17T04:30:23.964Z,8.67
2018-07-17T04:32:52.269Z,8.40
2018-07-17T04:35:20.378Z,9.00
2018-07-17T04:37:48.471Z,9.28
2018-07-17T04:40:16.591Z,9.53
2018-07-17T04:42:44.680Z,8.38
2018-07-17T04:45:12.935Z,9.85
2018-07-17T04:47:40.996Z,8.93
2018-07-17T04:50:09.161Z,9.73
2018-07-17T04:52:37.920Z,9.60
2018-07-17T04:55:06.021Z,10.50
2018-07-17T04:57:34.097Z,10.63
2018-07-17T05:00:02.241Z,9.93
2018-07-17T05:02:30.374Z,9.80
2018-07-17T05:04:58.486Z,9.73
2018-07-17T05:07:26.562Z,10.50
2018-07-17T05:09:54.690Z,10.60
2018-07-17T05:12:22.891Z,10.73
2018-07-17T05:14:51.059Z,10.77
2018-07-17T05:17:19.143Z,10.85
2018-07-17T05:19:47.283Z,9.90
2018-07-17T05:22:15.347Z,9.63
2018-07-17T05:24:43.450Z,9.53
2018-07-17T05:27:11.572Z,9.70
2018-07-17T05:29:39.819Z,10.13
2018-07-17T05:32:08.191Z,9.55
2018-07-17T05:34:36.309Z,9.00
2018-07-17T05:37:04.567Z,10.07
2018-07-17T05:39:32.747Z,9.00
2018-07-17T05:42:01.984Z,10.20
2018-07-17T05:44:30.506Z,10.50
2018-07-17T05:46:58.597Z,9.70
2018-07-17T05:49:26.722Z,9.10
2018-07-17T05:51:54.858Z,10.20
2018-07-17T05:54:22.916Z,9.67
2018-07-17T05:56:50.986Z,9.63
2018-07-17T05:59:19.062Z,11.30
2018-07-17T06:01:47.151Z,10.45
2018-07-17T06:04:15.220Z,9.93
2018-07-17T06:06:43.404Z,8.80
2018-07-17T06:09:11.932Z,9.35
2018-07-17T06:11:41.197Z,8.93
2018-07-17T06:14:09.294Z,9.48
2018-07-17T06:16:37.414Z,8.57
2018-07-17T06:19:05.877Z,8.53
2018-07-17T06:21:34.630Z,9.00
2018-07-17T06:24:02.705Z,8.10
2018-07-17T06:26:30.815Z,8.60
2018-07-17T06:28:58.901Z,8.53
2018-07-17T06:31:27.010Z,8.73
2018-07-17T06:33:55.198Z,8.20
2018-07-17T06:36:23.427Z,8.90
2018-07-17T06:38:51.560Z,9.40
2018-07-17T06:41:19.912Z,8.70
2018-07-17T06:43:48.078Z,8.08
2018-07-17T06:46:27.140Z,8.10
2018-07-17T06:48:55.443Z,9.20
2018-07-17T06:51:23.559Z,8.57
2018-07-17T06:53:51.634Z,8.30
2018-07-17T06:56:19.741Z,9.18
2018-07-17T06:58:47.812Z,8.00
2018-07-17T07:01:15.980Z,8.65
2018-07-17T07:03:44.068Z,8.13
2018-07-17T07:06:12.151Z,9.23
2018-07-17T07:08:40.232Z,8.30
2018-07-17T07:11:08.394Z,8.05
2018-07-17T07:13:36.454Z,8.20
2018-07-17T07:16:05.529Z,8.07
2018-07-17T07:18:33.612Z,9.47
2018-07-17T07:21:02.394Z,8.35
2018-07-17T07:23:30.485Z,8.80
2018-07-17T07:25:58.612Z,11.07
2018-07-17T07:28:26.702Z,8.37
2018-07-17T07:30:54.790Z,8.87
2018-07-17T07:33:22.940Z,9.17
2018-07-17T07:35:51.239Z,7.97
2018-07-17T07:38:19.294Z,8.30
2018-07-17T07:40:47.421Z,7.87
2018-07-17T07:43:15.499Z,8.30
2018-07-17T07:45:43.595Z,8.03
2018-07-17T07:48:11.666Z,8.10
2018-07-17T07:50:39.779Z,7.80
2018-07-17T07:53:07.839Z,9.10
2018-07-17T07:55:35.992Z,8.30
2018-07-17T07:58:04.043Z,8.33
2018-07-17T08:00:33.176Z,8.55
2018-07-17T08:03:01.246Z,8.90
2018-07-17T08:05:29.324Z,8.93
2018-07-17T08:07:57.551Z,7.70
2018-07-17T08:10:25.685Z,8.77
2018-07-17T08:12:54.467Z,7.37
2018-07-17T08:15:22.687Z,8.00
2018-07-17T08:17:50.824Z,7.30
2018-07-17T08:20:19.027Z,7.60
2018-07-17T08:22:47.100Z,8.75
2018-07-17T08:25:15.801Z,7.73
2018-07-17T08:27:43.900Z,7.40
2018-07-17T08:30:12.661Z,7.95
2018-07-17T08:32:40.811Z,8.97
2018-07-17T08:35:09.200Z,8.80
2018-07-17T08:37:37.750Z,7.05
2018-07-17T08:40:06.054Z,7.97
2018-07-17T08:42:34.145Z,8.00
2018-07-17T08:45:06.828Z,8.55
2018-07-17T08:47:35.183Z,9.13
2018-07-17T08:50:03.343Z,7.03
2018-07-17T08:52:31.477Z,6.70
2018-07-17T08:54:59.573Z,7.63
2018-07-17T08:57:27.966Z,6.87
2018-07-17T08:59:56.041Z,7.10
2018-07-17T09:02:24.174Z,6.37
2018-07-17T09:04:52.322Z,6.23
2018-07-17T09:07:20.663Z,5.75
2018-07-17T09:09:48.731Z,6.77
2018-07-17T09:12:16.799Z,6.90
2018-07-17T09:14:44.891Z,6.30
2018-07-17T09:17:13.060Z,6.08
2018-07-17T09:19:41.384Z,6.15
2018-07-17T09:22:09.467Z,6.30
2018-07-17T09:24:37.527Z,6.33
2018-07-17T09:27:05.789Z,6.10
2018-07-17T09:29:34.274Z,5.70
2018-07-17T09:32:03.062Z,5.23
2018-07-17T09:34:31.181Z,6.33
2018-07-17T09:36:59.271Z,6.03
2018-07-17T09:39:27.351Z,6.27
2018-07-17T09:41:55.464Z,6.13
2018-07-17T09:44:23.568Z,5.43
2018-07-17T09:46:51.683Z,6.90
2018-07-17T09:49:19.769Z,5.53
2018-07-17T09:51:47.874Z,6.15
2018-07-17T09:54:16.013Z,6.23
2018-07-17T09:56:44.068Z,5.90
2018-07-17T09:59:12.169Z,5.20
2018-07-17T10:01:45.535Z,4.70
2018-07-17T10:04:13.627Z,4.23
2018-07-17T10:06:41.754Z,4.92
2018-07-17T10:09:09.830Z,4.80
2018-07-17T10:11:38.160Z,4.77
2018-07-17T10:14:06.310Z,5.03
2018-07-17T10:16:34.448Z,4.23
2018-07-17T10:19:03.107Z,4.45
2018-07-17T10:21:31.202Z,4.40
2018-07-17T10:23:59.292Z,4.73
2018-07-17T10:26:27.499Z,4.27
2018-07-17T10:28:55.463Z,4.70
2018-07-17T10:31:23.640Z,4.30
2018-07-17T10:33:51.877Z,3.77
2018-07-17T10:36:20.055Z,4.55
2018-07-17T10:38:48.151Z,4.08
2018-07-17T10:41:16.222Z,3.62
2018-07-17T10:43:44.371Z,3.30
2018-07-17T10:46:12.580Z,3.23
2018-07-17T10:48:40.712Z,4.42
2018-07-17T10:51:09.048Z,3.05
2018-07-17T10:53:37.246Z,3.20
2018-07-17T10:56:05.354Z,2.90
2018-07-17T10:58:33.435Z,3.00
2018-07-17T11:01:02.371Z,3.17
2018-07-17T11:03:30.566Z,2.60
2018-07-17T11:05:58.732Z,3.30
2018-07-17T11:08:27.013Z,2.83
2018-07-17T11:10:55.128Z,3.13
2018-07-17T11:13:23.302Z,3.30
2018-07-17T11:15:52.312Z,3.27
2018-07-17T11:18:20.504Z,3.60
2018-07-17T11:20:50.978Z,3.77
2018-07-17T11:23:19.053Z,3.20
2018-07-17T11:25:47.118Z,3.30
2018-07-17T11:28:16.306Z,4.30
2018-07-17T11:30:46.443Z,5.87
2018-07-17T11:33:14.554Z,3.90
2018-07-17T11:35:43.399Z,4.30
2018-07-17T11:38:11.560Z,3.25
2018-07-17T11:40:39.622Z,3.12
2018-07-17T11:43:07.800Z,3.30
2018-07-17T11:45:36.103Z,2.80
2018-07-17T11:48:04.237Z,2.93
2018-07-17T11:50:32.346Z,2.80
2018-07-17T11:53:00.450Z,2.70
2018-07-17T11:55:28.722Z,2.70
2018-07-17T11:57:57.077Z,2.77
2018-07-17T12:00:25.659Z,2.70
2018-07-17T12:02:53.809Z,2.23
2018-07-17T12:05:21.977Z,2.70
2018-07-17T12:07:50.225Z,2.60
2018-07-17T12:10:18.345Z,2.40
2018-07-17T12:12:46.719Z,2.25
2018-07-17T12:15:14.784Z,2.55
2018-07-17T12:17:42.981Z,2.62
2018-07-17T12:20:11.409Z,2.60
2018-07-17T12:22:39.542Z,2.40
2018-07-17T12:25:07.868Z,2.60
2018-07-17T12:27:36.109Z,2.27
2018-07-17T12:30:05.298Z,2.23
2018-07-17T12:32:33.994Z,2.15
2018-07-17T12:35:02.234Z,2.10
2018-07-17T12:37:30.350Z,2.77
2018-07-17T12:39:58.430Z,2.40
2018-07-17T12:42:26.586Z,2.10
2018-07-17T12:44:54.766Z,2.27
2018-07-17T12:47:22.893Z,2.60
2018-07-17T12:49:51.127Z,2.40
2018-07-17T12:52:19.297Z,2.72
2018-07-17T12:54:47.637Z,2.60
2018-07-17T12:57:15.796Z,2.15
2018-07-17T12:59:44.108Z,5.95
2018-07-17T13:02:12.247Z,2.60
2018-07-17T13:04:40.352Z,2.50
2018-07-17T13:07:08.524Z,3.30
2018-07-17T13:09:36.698Z,2.63
2018-07-17T13:12:04.834Z,2.70
2018-07-17T13:14:34.207Z,8.53
2018-07-17T13:17:02.290Z,2.20
2018-07-17T13:19:31.046Z,3.13
2018-07-17T13:21:59.919Z,3.00
2018-07-17T13:24:28.014Z,3.07
2018-07-17T13:26:56.287Z,3.90
2018-07-17T13:29:24.674Z,3.17
2018-07-17T13:31:52.775Z,2.40
2018-07-17T13:37:11.510Z,2.62
2018-07-17T13:39:39.674Z,2.53
2018-07-17T13:42:07.783Z,3.23
2018-07-17T13:44:36.350Z,3.30
2018-07-17T13:47:04.516Z,3.10
2018-07-17T13:49:32.732Z,2.43
2018-07-17T13:52:00.928Z,3.10
2018-07-17T13:54:29.124Z,2.40
2018-07-17T13:56:57.199Z,3.53
2018-07-17T13:59:25.355Z,2.87
2018-07-17T14:01:53.550Z,2.20
2018-07-17T14:04:21.714Z,2.23
2018-07-17T14:06:49.952Z,2.03
2018-07-17T14:09:18.163Z,1.90
2018-07-17T14:11:46.477Z,2.37
2018-07-17T14:14:14.638Z,1.90
2018-07-17T14:16:42.867Z,2.20
2018-07-17T14:19:11.089Z,1.87
2018-07-17T14:21:39.354Z,2.33
2018-07-17T14:24:07.555Z,2.30
2018-07-17T14:26:39.471Z,1.93
2018-07-17T14:29:07.608Z,2.27
2018-07-17T14:31:36.843Z,1.87
2018-07-17T14:34:05.685Z,1.67
2018-07-17T14:36:35.076Z,1.97
2018-07-17T14:39:03.433Z,2.30
2018-07-17T14:41:32.208Z,2.22
2018-07-17T14:44:01.608Z,2.57
2018-07-17T14:46:30.200Z,2.30
2018-07-17T14:48:58.875Z,2.60
2018-07-17T14:51:27.087Z,2.15
2018-07-17T14:53:57.261Z,2.20
2018-07-17T14:56:25.573Z,2.40
2018-07-17T14:58:53.796Z,2.12
2018-07-17T15:01:22.143Z,1.90
2018-07-17T15:03:51.247Z,2.20
2018-07-17T15:06:19.429Z,2.30
2018-07-17T15:08:47.907Z,2.25
2018-07-17T15:11:16.297Z,2.35
2018-07-17T15:13:44.745Z,2.08
2018-07-17T15:16:13.205Z,2.22
2018-07-17T15:18:41.410Z,2.00
2018-07-17T15:21:09.702Z,2.37
2018-07-17T15:23:38.992Z,2.20
2018-07-17T15:26:09.700Z,2.40
2018-07-17T15:28:38.071Z,2.17
2018-07-17T15:31:06.188Z,2.73
2018-07-17T15:33:34.347Z,2.60
2018-07-17T15:36:02.638Z,2.17
2018-07-17T15:38:30.914Z,2.90
2018-07-17T15:40:59.016Z,3.20
2018-07-17T15:43:27.250Z,3.40
2018-07-17T15:45:55.384Z,3.53
2018-07-17T15:48:23.516Z,3.10
2018-07-17T15:50:51.845Z,3.30
2018-07-17T15:53:20.072Z,3.10
2018-07-17T15:55:49.499Z,3.30
2018-07-17T15:58:17.599Z,3.53
2018-07-17T16:00:45.723Z,3.40
2018-07-17T16:03:13.933Z,2.75
2018-07-17T16:05:42.093Z,3.57
2018-07-17T16:08:10.272Z,2.83
2018-07-17T16:10:38.449Z,3.00
2018-07-17T16:13:06.648Z,3.00
2018-07-17T16:15:35.690Z,2.67
2018-07-17T16:21:40.877Z,3.03
2018-07-17T16:24:08.998Z,3.00
2018-07-17T16:26:43.042Z,3.00
2018-07-17T16:29:11.724Z,3.10
2018-07-17T16:31:39.772Z,3.67
2018-07-17T16:34:07.851Z,3.50
2018-07-17T16:36:35.970Z,3.30
2018-07-17T16:39:06.962Z,3.10
2018-07-17T16:41:35.171Z,3.10
2018-07-17T16:44:03.278Z,3.33
2018-07-17T16:46:31.383Z,3.70
2018-07-17T16:48:59.485Z,3.27
2018-07-17T16:51:27.677Z,3.87
2018-07-17T16:53:56.342Z,4.50
2018-07-17T16:56:24.434Z,5.07
2018-07-17T16:58:52.574Z,3.30
2018-07-17T17:01:20.681Z,2.58
2018-07-17T17:03:48.767Z,2.97
2018-07-17T17:06:17.060Z,3.27
2018-07-17T17:08:45.415Z,3.10
2018-07-17T17:11:13.547Z,3.30
2018-07-17T17:13:41.653Z,2.87
2018-07-17T17:16:09.763Z,3.73
2018-07-17T17:18:38.052Z,3.53
2018-07-17T17:21:06.212Z,3.73
2018-07-17T17:23:36.716Z,3.27
2018-07-17T17:26:06.175Z,2.72
2018-07-17T17:28:35.703Z,2.83
2018-07-17T17:31:03.880Z,2.77
2018-07-17T17:33:32.076Z,3.00
2018-07-17T17:36:00.240Z,3.30
2018-07-17T17:38:28.342Z,2.70
2018-07-17T17:40:56.501Z,2.93
2018-07-17T17:43:24.589Z,2.50
2018-07-17T17:45:52.888Z,2.15
2018-07-17T17:48:21.044Z,2.70
2018-07-17T17:50:49.240Z,2.50
2018-07-17T17:53:17.362Z,3.12
2018-07-17T17:55:45.487Z,2.50
2018-07-17T17:58:13.719Z,2.20
2018-07-17T18:00:41.957Z,2.17
2018-07-17T18:03:10.155Z,2.08
2018-07-17T18:05:39.469Z,2.22
2018-07-17T18:08:07.722Z,2.53
2018-07-17T18:10:35.834Z,2.50
2018-07-17T18:13:03.950Z,2.60
2018-07-17T18:15:32.156Z,2.93
2018-07-17T18:18:00.236Z,2.90
2018-07-17T18:20:28.517Z,2.20
2018-07-17T18:22:56.964Z,2.30
2018-07-17T18:25:26.220Z,2.40
2018-07-17T18:27:54.646Z,3.30
2018-07-17T18:30:22.859Z,2.00
2018-07-17T18:32:50.934Z,2.17
2018-07-17T18:35:19.273Z,2.50
2018-07-17T18:37:47.771Z,2.20
2018-07-17T18:40:15.970Z,2.65
2018-07-17T18:42:44.236Z,2.30
2018-07-17T18:45:21.781Z,2.60
2018-07-17T18:48:10.982Z,2.50
2018-07-17T18:50:39.671Z,2.40
2018-07-17T18:53:07.896Z,3.77
2018-07-17T18:55:36.774Z,2.30
2018-07-17T18:58:05.646Z,2.60
2018-07-17T19:00:33.730Z,2.47
2018-07-17T19:03:02.043Z,2.20
2018-07-17T19:05:30.154Z,2.20
2018-07-17T19:07:58.495Z,2.20
2018-07-17T19:10:26.633Z,2.62
2018-07-17T19:12:54.771Z,2.30
2018-07-17T19:15:22.927Z,2.30
2018-07-17T19:17:51.037Z,2.25
2018-07-17T19:20:19.565Z,2.47
2018-07-17T19:22:48.009Z,2.63
2018-07-17T19:25:16.173Z,2.30
2018-07-17T19:27:44.344Z,2.42
2018-07-17T19:30:13.595Z,2.73
2018-07-17T19:32:41.657Z,2.92
2018-07-17T19:35:09.742Z,2.60
2018-07-17T19:37:37.915Z,3.33
2018-07-17T19:40:06.824Z,3.03
2018-07-17T19:42:35.695Z,2.60
2018-07-17T19:45:03.839Z,2.87
2018-07-17T19:47:32.046Z,2.80
2018-07-17T19:50:00.197Z,2.90
2018-07-17T19:52:29.372Z,3.37
2018-07-17T19:54:57.474Z,3.60
2018-07-17T19:57:26.604Z,3.30
2018-07-17T19:59:54.767Z,4.03
2018-07-17T20:02:23.616Z,3.83
2018-07-17T20:04:51.978Z,3.40
2018-07-17T20:07:20.079Z,3.90
2018-07-17T20:09:48.252Z,3.83
2018-07-17T20:12:16.559Z,3.90
2018-07-17T20:14:44.659Z,4.10
2018-07-17T20:17:12.980Z,3.10
2018-07-17T20:19:41.299Z,4.70
2018-07-17T20:22:09.467Z,4.80
2018-07-17T20:24:37.576Z,4.10
2018-07-17T20:27:06.183Z,3.95
2018-07-17T20:29:34.341Z,3.60
2018-07-17T20:32:02.475Z,3.70
2018-07-17T20:34:30.762Z,3.70
2018-07-17T20:36:59.392Z,3.00
2018-07-17T20:39:27.608Z,4.20
2018-07-17T20:41:55.748Z,3.57
2018-07-17T20:44:23.875Z,3.00
2018-07-17T20:46:52.136Z,3.43
2018-07-17T20:49:20.399Z,3.40
2018-07-17T20:51:48.550Z,3.35
2018-07-17T20:54:17.084Z,3.45
2018-07-17T20:56:45.324Z,3.83
2018-07-17T20:59:13.422Z,3.90
2018-07-17T21:01:41.830Z,3.17
2018-07-17T21:04:10.171Z,3.50
2018-07-17T21:06:38.302Z,3.20
2018-07-17T21:09:09.329Z,3.70
2018-07-17T21:11:37.482Z,3.20
2018-07-17T21:14:05.678Z,3.40
2018-07-17T21:16:33.768Z,3.63
2018-07-17T21:19:01.940Z,3.70
2018-07-17T21:21:30.023Z,3.70
2018-07-17T21:23:58.214Z,3.10
2018-07-17T21:26:26.478Z,3.83
2018-07-17T21:28:54.594Z,3.70
2018-07-17T21:31:22.736Z,3.77
2018-07-17T21:33:51.124Z,3.50
2018-07-17T21:36:19.323Z,4.17
2018-07-17T21:38:47.391Z,3.60
2018-07-17T21:41:15.470Z,3.10
2018-07-17T21:43:43.557Z,4.50
2018-07-17T21:46:11.694Z,5.04
2018-07-17T21:48:39.791Z,3.20
2018-07-17T21:51:07.927Z,3.50
2018-07-17T21:53:36.341Z,4.03
2018-07-17T21:56:04.938Z,4.37
2018-07-17T21:58:33.118Z,4.13
2018-07-17T22:01:02.494Z,3.37
2018-07-17T22:03:31.686Z,3.60
2018-07-17T22:05:59.923Z,3.77
2018-07-17T22:08:28.108Z,3.80
2018-07-17T22:10:56.232Z,3.33
2018-07-17T22:13:24.377Z,3.30
2018-07-17T22:15:52.519Z,3.57
2018-07-17T22:18:20.768Z,3.50
2018-07-17T22:20:48.891Z,3.63
2018-07-17T22:23:17.333Z,3.50
2018-07-17T22:25:45.443Z,3.60
2018-07-17T22:28:13.587Z,3.47
2018-07-17T22:30:41.886Z,3.27
2018-07-17T22:33:10.284Z,3.30
2018-07-17T22:35:38.487Z,3.10
2018-07-17T22:38:07.126Z,4.17
2018-07-17T22:40:35.209Z,3.80
2018-07-17T22:43:04.003Z,3.50
2018-07-17T22:45:32.100Z,3.27
2018-07-17T22:48:00.211Z,3.50
2018-07-17T22:50:28.454Z,3.70
2018-07-17T22:52:56.855Z,3.30
2018-07-17T22:55:25.483Z,3.43
2018-07-17T22:57:53.631Z,3.50
2018-07-17T23:00:21.734Z,3.52
2018-07-17T23:02:49.878Z,3.27
2018-07-17T23:05:18.920Z,3.67
2018-07-17T23:07:47.072Z,3.40
2018-07-17T23:10:15.313Z,3.30
2018-07-17T23:12:43.446Z,3.72
2018-07-17T23:15:11.624Z,3.92
2018-07-17T23:17:40.410Z,3.70
2018-07-17T23:20:09.511Z,3.30
2018-07-17T23:22:48.609Z,3.20
2018-07-17T23:25:17.143Z,3.93
2018-07-17T23:27:45.623Z,3.80
2018-07-17T23:30:13.924Z,4.60
2018-07-17T23:32:42.191Z,4.33
2018-07-17T23:35:11.196Z,3.80
2018-07-17T23:37:39.351Z,4.40
2018-07-17T23:40:07.452Z,4.33
2018-07-17T23:42:35.691Z,4.30
2018-07-17T23:45:03.775Z,3.80
2018-07-17T23:47:32.198Z,4.03
2018-07-17T23:50:00.275Z,3.90
2018-07-17T23:52:28.435Z,4.20
2018-07-17T23:54:56.491Z,4.10
2018-07-17T23:57:24.769Z,3.40
2018-07-17T23:59:52.881Z,3.62
